Nagarote, Nicaragua

12:28 PM CST on September 18, 2014 (GMT -0600)
Augusto Cesar Sandino | Change Station
CLOSE
Current Station
Airport
Location: Managua,
Elevation: 184 ft
Nearby Weather Stations

Elev 184 ft 12.14 °N, 86.17 °W | Updated 28 minutes ago

Scattered Clouds
Scattered Clouds
90 °F
Feels Like 98 °F
N
12
Wind Variable Wind from East

Today
High -- | Low -- °F
--% Chance of Precip.
Yesterday
High -- | Low -- °F
Precip. -- in
5:35 AM 5:45 PM
Waning Crescent, 25% visible
Pressure 29.83 in
Visibility 6.2 miles
Clouds Scattered Clouds 2300 ft
Heat Index 98 °F
Dew Point 73 °F
Humidity 59%
Rainfall 0.00 in
Snow Depth Not available.
UV 13 out of 12
Pollen Not available.
Air Quality Not available.
Flu Activity Not available.
METAR MNMG 181800Z 10010KT 9999 SCT023 32/23 Q1010 A2985 1AC070 2CI30 0 NOS IG

More Conditions Fewer Conditions

Pressure 29.83 in
Visibility 6.2 miles
Clouds Scattered Clouds 2300 ft
Heat Index 98 °F
Dew Point 73 °F
Humidity 59%
Rainfall 0.00 in
Snow Depth Not available.
UV 13 out of 12
Pollen Not available.
Air Quality Not available.
Flu Activity Not available.
METAR MNMG 181800Z 10010KT 9999 SCT023 32/23 Q1010 A2985 1AC070 2CI30 0 NOS IG

More Conditions Fewer Conditions

10-Day Weather Forecast

Almanac

Astronomy

Sep. 18, 2014 Rise Set
Actual Time 5:35 AM CST 5:45 PM CST
Civil Twilight 5:14 AM CST 6:06 PM CST
Nautical Twilight 4:49 AM CST 6:30 PM CST
Astronomical Twilight 4:24 AM CST 6:55 PM CST
Moon 1:06 AM CST 1:59 PM CST
Length of Visible Light 12h 51m
Length of Day
12h 09m
Tomorrow will be 0m 40s shorter.
Waning Crescent, 25% of the Moon is Illuminated
Today
Waning Crescent
Sep 24
New
Oct 1
First Quarter
Oct 8
Full
Oct 15
Last Quarter

Today's Extremes

Country Highs Country Lows

Community

WunderPhotos

Upload Photos

1,754,414 photos uploaded!

Nearby

Snow Depth

Not available.

Earthquake Activity

City Distance Mag. Time & Date
No recent earthquake activity has been reported nearby.
Minimum magnitude displayed is 2.5.

Coastal Water Temperatures

Place Temperature
No Stations Reporting

Nearby Weather Stations